createdAt,value
2023-11-28T00:00:27.635Z,98443.88
2023-11-28T00:02:54.195Z,98449.09
2023-11-28T00:05:21.682Z,98452.41
2023-11-28T00:07:48.193Z,98451.34
2023-11-28T00:10:15.186Z,98448.00
2023-11-28T00:12:41.699Z,98452.19
2023-11-28T00:15:08.569Z,98454.66
2023-11-28T00:17:35.193Z,98454.66
2023-11-28T00:20:01.753Z,98467.22
2023-11-28T00:22:28.350Z,98471.84
2023-11-28T00:24:55.489Z,98479.16
2023-11-28T00:27:22.057Z,98491.13
2023-11-28T00:29:48.577Z,98497.66
2023-11-28T00:32:15.109Z,98500.38
2023-11-28T00:34:42.385Z,98497.50
2023-11-28T00:37:10.088Z,98517.41
2023-11-28T00:39:36.749Z,98528.78
2023-11-28T00:42:04.879Z,98530.88
2023-11-28T00:44:32.659Z,98533.25
2023-11-28T00:46:59.291Z,98513.34
2023-11-28T00:49:25.923Z,98536.50
2023-11-28T00:51:54.776Z,98541.34
2023-11-28T00:54:21.729Z,98553.28
2023-11-28T00:56:48.226Z,98573.03
2023-11-28T00:59:14.671Z,98578.47
2023-11-28T01:01:41.222Z,98583.34
2023-11-28T01:04:08.044Z,98580.22
2023-11-28T01:06:34.557Z,98566.00
2023-11-28T01:09:01.835Z,98593.22
2023-11-28T01:11:28.382Z,98584.16
2023-11-28T01:13:55.409Z,98594.66
2023-11-28T01:16:22.012Z,98603.38
2023-11-28T01:18:48.610Z,98604.41
2023-11-28T01:21:15.150Z,98611.16
2023-11-28T01:23:41.634Z,98623.75
2023-11-28T01:26:08.391Z,98610.09
2023-11-28T01:28:35.075Z,98623.44
2023-11-28T01:31:01.633Z,98627.66
2023-11-28T01:33:28.126Z,98631.75
2023-11-28T01:35:54.654Z,98619.66
2023-11-28T01:38:21.127Z,98637.00
2023-11-28T01:40:51.498Z,98634.94
2023-11-28T01:43:30.254Z,98652.56
2023-11-28T01:45:57.904Z,98646.94
2023-11-28T01:48:24.826Z,98656.75
2023-11-28T01:50:51.774Z,98664.97
2023-11-28T01:53:19.060Z,98673.34
2023-11-28T01:55:46.042Z,98690.72
2023-11-28T01:58:13.238Z,98692.81
2023-11-28T02:00:39.933Z,98694.31
2023-11-28T02:03:10.724Z,98701.22
2023-11-28T02:05:39.021Z,98703.50
2023-11-28T02:08:07.578Z,98710.47
2023-11-28T02:10:37.010Z,98713.78
2023-11-28T02:13:03.974Z,98721.75
2023-11-28T02:15:45.748Z,98718.63
2023-11-28T02:18:13.599Z,98729.75
2023-11-28T02:23:48.968Z,98733.09
2023-11-28T02:26:21.163Z,98748.13
2023-11-28T02:28:47.982Z,98749.22
2023-11-28T02:31:14.536Z,98752.72
2023-11-28T02:33:41.051Z,98756.53
2023-11-28T02:36:08.268Z,98757.75
2023-11-28T02:38:34.886Z,98758.44
2023-11-28T02:41:01.440Z,98762.41
2023-11-28T02:43:28.354Z,98764.69
2023-11-28T02:45:55.067Z,98774.09
2023-11-28T02:48:25.236Z,98779.59
2023-11-28T02:50:51.931Z,98787.72
2023-11-28T02:53:19.148Z,98790.84
2023-11-28T02:55:45.881Z,98795.88
2023-11-28T02:58:12.488Z,98803.41
2023-11-28T03:00:38.999Z,98807.81
2023-11-28T03:03:05.857Z,98820.97
2023-11-28T03:05:32.719Z,98824.72
2023-11-28T03:07:59.328Z,98815.56
2023-11-28T03:10:25.922Z,98836.84
2023-11-28T03:12:52.492Z,98830.19
2023-11-28T03:15:18.945Z,98827.88
2023-11-28T03:17:45.599Z,98835.63
2023-11-28T03:20:12.266Z,98836.66
2023-11-28T03:22:38.760Z,98852.34
2023-11-28T03:25:09.989Z,98859.88
2023-11-28T03:27:37.398Z,98854.66
2023-11-28T03:30:05.231Z,98858.22
2023-11-28T03:32:31.984Z,98863.63
2023-11-28T03:34:58.725Z,98870.75
2023-11-28T03:37:27.078Z,98890.16
2023-11-28T03:39:53.553Z,98889.97
2023-11-28T03:42:20.233Z,98884.56
2023-11-28T03:44:46.991Z,98913.38
2023-11-28T03:47:13.743Z,98915.25
2023-11-28T03:49:40.388Z,98912.31
2023-11-28T03:52:07.033Z,98909.59
2023-11-28T03:54:33.621Z,98917.13
2023-11-28T03:57:00.132Z,98932.41
2023-11-28T03:59:26.613Z,98930.72
2023-11-28T04:01:53.304Z,98929.69
2023-11-28T04:04:21.080Z,98945.97
2023-11-28T04:06:47.726Z,98947.63
2023-11-28T04:09:15.085Z,98948.03
2023-11-28T04:11:41.729Z,98948.47
2023-11-28T04:14:08.481Z,98958.06
2023-11-28T04:16:35.054Z,98971.44
2023-11-28T04:19:01.612Z,98963.91
2023-11-28T04:21:28.061Z,98972.28
2023-11-28T04:23:54.545Z,98988.16
2023-11-28T04:26:21.063Z,98992.53
2023-11-28T04:28:47.689Z,99003.41
2023-11-28T04:31:21.954Z,99006.75
2023-11-28T04:33:48.971Z,99013.22
2023-11-28T04:36:18.321Z,99015.31
2023-11-28T04:38:45.219Z,99027.84
2023-11-28T04:41:16.047Z,99019.91
2023-11-28T04:43:42.588Z,99036.63
2023-11-28T04:46:09.626Z,99031.19
2023-11-28T04:48:36.264Z,99044.56
2023-11-28T04:51:02.956Z,99052.09
2023-11-28T04:53:29.549Z,99058.75
2023-11-28T04:55:56.175Z,99067.56
2023-11-28T04:58:22.650Z,99067.97
2023-11-28T05:00:50.454Z,99081.38
2023-11-28T05:03:17.165Z,99087.19
2023-11-28T05:05:43.709Z,99083.00
2023-11-28T05:08:10.332Z,99093.47
2023-11-28T05:10:36.960Z,99095.13
2023-11-28T05:13:05.509Z,99100.16
2023-11-28T05:15:32.642Z,99110.63
2023-11-28T05:17:59.224Z,99107.91
2023-11-28T05:20:25.816Z,99116.69
2023-11-28T05:22:52.288Z,99120.66
2023-11-28T05:25:19.035Z,99131.09
2023-11-28T05:27:45.750Z,99139.91
2023-11-28T05:30:12.904Z,99137.38
2023-11-28T05:32:39.475Z,99138.22
2023-11-28T05:35:06.750Z,99152.00
2023-11-28T05:37:33.295Z,99157.25
2023-11-28T05:39:59.775Z,99172.09
2023-11-28T05:42:27.436Z,99168.31
2023-11-28T05:44:53.944Z,99173.75
2023-11-28T05:47:20.641Z,99174.81
2023-11-28T05:49:47.227Z,99186.94
2023-11-28T05:52:13.807Z,99182.13
2023-11-28T05:54:40.338Z,99196.38
2023-11-28T05:57:06.894Z,99195.53
2023-11-28T05:59:33.437Z,99210.56
2023-11-28T06:02:04.065Z,99212.25
2023-11-28T06:04:31.231Z,99226.28
2023-11-28T06:06:58.427Z,99225.00
2023-11-28T06:09:25.478Z,99230.69
2023-11-28T06:11:52.860Z,99237.78
2023-11-28T06:14:21.007Z,99246.53
2023-11-28T06:16:47.701Z,99252.41
2023-11-28T06:19:16.657Z,99254.06
2023-11-28T06:21:43.490Z,99253.66
2023-11-28T06:24:10.051Z,99264.94
2023-11-28T06:26:36.651Z,99266.59
2023-11-28T06:29:03.712Z,99280.84
2023-11-28T06:31:30.503Z,99289.59
2023-11-28T06:33:57.081Z,99293.16
2023-11-28T06:36:23.553Z,99299.25
2023-11-28T06:38:50.067Z,99305.31
2023-11-28T06:41:16.720Z,99316.00
2023-11-28T06:43:43.424Z,99323.09
2023-11-28T06:46:10.978Z,99319.75
2023-11-28T06:48:39.143Z,99327.88
2023-11-28T06:51:08.351Z,99339.13
2023-11-28T06:53:34.995Z,99342.88
2023-11-28T06:56:03.646Z,99358.38
2023-11-28T06:58:30.358Z,99365.28
2023-11-28T07:00:56.833Z,99354.41
2023-11-28T07:03:24.132Z,99372.78
2023-11-28T07:05:50.658Z,99383.66
2023-11-28T07:08:17.203Z,99392.47
2023-11-28T07:10:43.765Z,99396.22
2023-11-28T07:13:11.287Z,99400.41
2023-11-28T07:15:38.005Z,99410.44
2023-11-28T07:18:05.060Z,99415.44
2023-11-28T07:20:31.785Z,99415.22
2023-11-28T07:22:58.572Z,99420.25
2023-11-28T07:25:25.128Z,99422.97
2023-11-28T07:27:51.636Z,99426.75
2023-11-28T07:30:18.174Z,99440.97
2023-11-28T07:32:44.879Z,99448.50
2023-11-28T07:35:11.573Z,99452.50
2023-11-28T07:37:40.156Z,99458.56
2023-11-28T07:40:09.657Z,99465.69
2023-11-28T07:42:36.317Z,99466.53
2023-11-28T07:45:03.373Z,99471.97
2023-11-28T07:47:30.019Z,99469.03
2023-11-28T07:49:56.618Z,99477.19
2023-11-28T07:52:23.259Z,99483.66
2023-11-28T07:54:49.777Z,99487.84
2023-11-28T07:57:16.352Z,99485.31
2023-11-28T07:59:47.642Z,99502.22
2023-11-28T08:02:15.364Z,99498.88
2023-11-28T08:04:42.092Z,99509.75
2023-11-28T08:07:10.674Z,99503.25
2023-11-28T08:09:37.943Z,99515.19
2023-11-28T08:12:04.761Z,99518.28
2023-11-28T08:14:31.403Z,99526.81
2023-11-28T08:16:58.024Z,99527.88
2023-11-28T08:19:24.512Z,99536.66
2023-11-28T08:21:51.086Z,99543.56
2023-11-28T08:24:17.553Z,99536.06
2023-11-28T08:26:44.102Z,99538.56
2023-11-28T08:29:10.622Z,99546.72
2023-11-28T08:31:37.838Z,99546.50
2023-11-28T08:34:04.367Z,99553.63
2023-11-28T08:36:31.735Z,99557.59
2023-11-28T08:38:58.286Z,99564.72
2023-11-28T08:41:25.173Z,99563.50
2023-11-28T08:43:51.954Z,99570.59
2023-11-28T08:46:21.580Z,99576.50
2023-11-28T08:48:51.316Z,99571.72
2023-11-28T08:51:18.521Z,99573.00
2023-11-28T08:53:45.157Z,99581.59
2023-11-28T08:56:15.148Z,99586.63
2023-11-28T08:58:41.943Z,99596.66
2023-11-28T09:01:08.817Z,99594.56
2023-11-28T09:03:35.581Z,99599.19
2023-11-28T09:06:03.123Z,99607.94
2023-11-28T09:08:29.975Z,99617.97
2023-11-28T09:10:58.132Z,99627.13
2023-11-28T09:13:24.773Z,99625.03
2023-11-28T09:15:51.288Z,99634.44
2023-11-28T09:18:18.241Z,99612.63
2023-11-28T09:20:44.877Z,99641.69
2023-11-28T09:23:11.564Z,99645.88
2023-11-28T09:25:41.712Z,99654.69
2023-11-28T09:28:10.132Z,99663.47
2023-11-28T09:30:36.731Z,99669.38
2023-11-28T09:33:03.437Z,99676.31
2023-11-28T09:35:30.038Z,99685.94
2023-11-28T09:37:56.750Z,99689.13
2023-11-28T09:40:23.398Z,99690.41
2023-11-28T09:42:52.980Z,99695.28
2023-11-28T09:45:22.298Z,99700.09
2023-11-28T09:47:50.207Z,99699.72
2023-11-28T09:50:21.824Z,99712.94
2023-11-28T09:52:49.811Z,99707.88
2023-11-28T09:55:16.783Z,99721.47
2023-11-28T09:57:48.381Z,99730.84
2023-11-28T10:00:19.807Z,99735.22
2023-11-28T10:02:53.729Z,99735.59
2023-11-28T10:05:20.848Z,99738.06
2023-11-28T10:07:53.041Z,99735.06
2023-11-28T10:10:20.935Z,99747.63
2023-11-28T10:12:48.117Z,99744.47
2023-11-28T10:15:14.644Z,99753.47
2023-11-28T10:17:43.603Z,99749.28
2023-11-28T10:20:11.435Z,99752.16
2023-11-28T10:22:40.816Z,99752.56
2023-11-28T10:25:11.741Z,99762.03
2023-11-28T10:27:42.005Z,99777.66
2023-11-28T10:30:12.843Z,99779.34
2023-11-28T10:32:39.789Z,99788.53
2023-11-28T10:35:07.321Z,99795.66
2023-11-28T10:37:37.710Z,99791.53
2023-11-28T10:40:20.563Z,99792.44
2023-11-28T10:42:47.653Z,99795.44
2023-11-28T10:45:17.077Z,99794.19
2023-11-28T10:47:45.317Z,99804.69
2023-11-28T10:50:14.692Z,99783.13
2023-11-28T10:52:45.297Z,99792.56
2023-11-28T10:55:19.408Z,99796.97
2023-11-28T10:58:01.161Z,99796.59
2023-11-28T11:00:28.028Z,99804.00
2023-11-28T11:02:56.559Z,99811.34
2023-11-28T11:05:24.676Z,99807.47
2023-11-28T11:07:52.841Z,99809.41
2023-11-28T11:10:19.677Z,99816.53
2023-11-28T11:12:50.567Z,99821.78
2023-11-28T11:15:32.509Z,99818.22
2023-11-28T11:18:27.516Z,99830.16
2023-11-28T11:20:59.128Z,99833.91
2023-11-28T11:23:29.380Z,99840.59
2023-11-28T11:25:55.959Z,99839.78
2023-11-28T11:28:22.921Z,99841.50
2023-11-28T11:30:49.467Z,99846.09
2023-11-28T11:33:25.109Z,99847.78
2023-11-28T11:36:09.097Z,99853.78
2023-11-28T11:38:37.064Z,99852.78
2023-11-28T11:41:06.225Z,99864.88
2023-11-28T11:43:40.595Z,99865.06
2023-11-28T11:46:10.877Z,99864.22
2023-11-28T11:48:39.059Z,99861.13
2023-11-28T11:51:06.398Z,99860.72
2023-11-28T11:53:34.733Z,99858.13
2023-11-28T11:56:03.309Z,99867.59
2023-11-28T11:58:31.547Z,99867.97
2023-11-28T12:01:02.625Z,99879.72
2023-11-28T12:03:29.849Z,99882.88
2023-11-28T12:06:00.883Z,99878.75
2023-11-28T12:08:28.142Z,99884.06
2023-11-28T12:11:05.619Z,99895.19
2023-11-28T12:13:32.357Z,99898.19
2023-11-28T12:16:03.496Z,99895.06
2023-11-28T12:18:30.535Z,99903.22
2023-11-28T12:20:59.106Z,99894.66
2023-11-28T12:23:25.893Z,99892.78
2023-11-28T12:25:54.453Z,99897.38
2023-11-28T12:28:21.118Z,99897.78
2023-11-28T12:30:49.738Z,99904.06
2023-11-28T12:33:16.507Z,99902.00
2023-11-28T12:35:46.605Z,99901.81
2023-11-28T12:38:13.330Z,99904.13
2023-11-28T12:40:39.909Z,99916.97
2023-11-28T12:43:06.428Z,99909.91
2023-11-28T12:45:34.255Z,99920.59
2023-11-28T12:48:00.970Z,99917.88
2023-11-28T12:50:29.671Z,99916.38
2023-11-28T12:52:56.561Z,99921.81
2023-11-28T12:55:24.543Z,99933.06
2023-11-28T12:57:51.605Z,99919.16
2023-11-28T13:00:18.234Z,99932.94
2023-11-28T13:02:45.012Z,99940.81
2023-11-28T13:05:12.047Z,99936.97
2023-11-28T13:07:45.167Z,99944.69
2023-11-28T13:10:17.024Z,99943.59
2023-11-28T13:12:43.771Z,99944.00
2023-11-28T13:15:12.530Z,99941.44
2023-11-28T13:17:39.473Z,99951.03
2023-11-28T13:20:07.811Z,99961.28
2023-11-28T13:22:34.609Z,99960.59
2023-11-28T13:25:01.925Z,99958.44
2023-11-28T13:27:28.412Z,99962.22
2023-11-28T13:29:56.197Z,99965.78
2023-11-28T13:32:22.906Z,99978.34
2023-11-28T13:34:49.532Z,99971.88
2023-11-28T13:37:25.307Z,99967.84
2023-11-28T13:39:51.898Z,99978.47
2023-11-28T13:42:18.457Z,99977.25
2023-11-28T13:44:45.011Z,99978.09
2023-11-28T13:47:11.723Z,99976.78
2023-11-28T13:49:38.528Z,99983.72
2023-11-28T13:52:05.618Z,99979.13
2023-11-28T13:54:34.277Z,99983.53
2023-11-28T13:57:00.753Z,99986.44
2023-11-28T13:59:31.881Z,99992.72
2023-11-28T14:01:59.075Z,99991.69
2023-11-28T14:04:27.286Z,99996.94
2023-11-28T14:06:53.854Z,100000.50
2023-11-28T14:09:20.606Z,100002.81
2023-11-28T14:11:47.173Z,99999.09
2023-11-28T14:14:16.668Z,100012.69
2023-11-28T14:16:44.796Z,100011.00
2023-11-28T14:19:11.362Z,100013.72
2023-11-28T14:21:39.566Z,100010.81
2023-11-28T14:24:06.737Z,100010.81
2023-11-28T14:26:33.272Z,100005.56
2023-11-28T14:28:59.882Z,100017.47
2023-11-28T14:31:26.458Z,100016.81
2023-11-28T14:33:53.001Z,100017.84
2023-11-28T14:36:19.527Z,100024.97
2023-11-28T14:38:47.495Z,100024.13
2023-11-28T14:41:14.229Z,100031.44
2023-11-28T14:43:40.701Z,100031.66
2023-11-28T14:46:07.391Z,100039.97
2023-11-28T14:48:33.995Z,100032.88
2023-11-28T14:51:01.066Z,100037.47
2023-11-28T14:53:27.694Z,100047.50
2023-11-28T14:55:54.374Z,100044.97
2023-11-28T14:58:21.091Z,100053.50
2023-11-28T15:00:48.287Z,100046.56
2023-11-28T15:03:15.397Z,100061.19
2023-11-28T15:05:42.028Z,100068.72
2023-11-28T15:08:10.157Z,100068.41
2023-11-28T15:10:37.341Z,100066.72
2023-11-28T15:13:18.031Z,100067.56
2023-11-28T15:15:46.164Z,100073.19
2023-11-28T15:18:12.889Z,100076.94
2023-11-28T15:20:39.565Z,100079.69
2023-11-28T15:23:08.667Z,100087.84
2023-11-28T15:25:36.808Z,100087.63
2023-11-28T15:28:03.376Z,100085.75
2023-11-28T15:30:29.937Z,100082.38
2023-11-28T15:32:56.515Z,100094.94
2023-11-28T15:35:24.080Z,100096.63
2023-11-28T15:37:55.470Z,100102.06
2023-11-28T15:40:27.725Z,100102.06
2023-11-28T15:42:54.233Z,100107.50
2023-11-28T15:45:25.241Z,100103.78
2023-11-28T15:47:51.764Z,100107.34
2023-11-28T15:50:18.569Z,100111.94
2023-11-28T15:52:45.163Z,100109.38
2023-11-28T15:55:11.823Z,100111.94
2023-11-28T15:57:40.433Z,100104.63
2023-11-28T16:00:07.771Z,100111.09
2023-11-28T16:02:34.780Z,100110.44
2023-11-28T16:05:01.452Z,100109.97
2023-11-28T16:07:29.112Z,100105.25
2023-11-28T16:09:55.629Z,100100.56
2023-11-28T16:12:22.640Z,100106.47
2023-11-28T16:14:50.780Z,100114.81
2023-11-28T16:17:17.771Z,100114.81
2023-11-28T16:19:44.612Z,100121.94
2023-11-28T16:22:11.564Z,100113.94
2023-11-28T16:24:39.362Z,100118.38
2023-11-28T16:27:06.471Z,100111.06
2023-11-28T16:29:34.693Z,100120.59
2023-11-28T16:32:04.387Z,100118.91
2023-11-28T16:34:31.007Z,100121.84
2023-11-28T16:36:57.570Z,100120.13
2023-11-28T16:39:24.178Z,100115.72
2023-11-28T16:41:50.665Z,100124.72
2023-11-28T16:44:17.272Z,100117.25
2023-11-28T16:46:44.808Z,100125.41
2023-11-28T16:49:12.468Z,100125.56
2023-11-28T16:51:39.916Z,100118.63
2023-11-28T16:54:07.613Z,100123.03
2023-11-28T16:56:34.217Z,100123.88
2023-11-28T16:59:00.854Z,100120.13
2023-11-28T17:01:27.382Z,100132.72
2023-11-28T17:03:54.019Z,100127.66
2023-11-28T17:06:20.529Z,100123.41
2023-11-28T17:08:47.058Z,100121.53
2023-11-28T17:11:14.362Z,100127.97
2023-11-28T17:13:42.881Z,100121.72
2023-11-28T17:16:10.429Z,100125.09
2023-11-28T17:18:37.085Z,100124.06
2023-11-28T17:21:04.320Z,100128.66
2023-11-28T17:23:34.109Z,100126.78
2023-11-28T17:26:02.144Z,100125.09
2023-11-28T17:28:30.560Z,100126.78
2023-11-28T17:30:57.815Z,100126.59
2023-11-28T17:33:24.555Z,100125.41
2023-11-28T17:35:51.166Z,100131.84
2023-11-28T17:38:19.226Z,100140.03
2023-11-28T17:40:45.849Z,100134.41
2023-11-28T17:43:12.365Z,100124.34
2023-11-28T17:45:38.958Z,100119.97
2023-11-28T17:48:05.869Z,100118.91
2023-11-28T17:50:32.588Z,100122.69
2023-11-28T17:52:59.192Z,100128.13
2023-11-28T17:55:25.725Z,100127.06
2023-11-28T17:57:54.360Z,100123.34
2023-11-28T18:00:23.152Z,100122.31
2023-11-28T18:02:49.964Z,100122.31
2023-11-28T18:05:20.013Z,100130.47
2023-11-28T18:07:47.443Z,100138.63
2023-11-28T18:10:14.392Z,100135.22
2023-11-28T18:12:41.383Z,100139.84
2023-11-28T18:15:22.555Z,100134.56
2023-11-28T18:17:55.124Z,100137.28
2023-11-28T18:20:22.165Z,100139.16
2023-11-28T18:22:48.696Z,100135.59
2023-11-28T18:25:15.324Z,100137.66
2023-11-28T18:27:42.956Z,100148.53
2023-11-28T18:30:10.300Z,100133.25
2023-11-28T18:32:36.841Z,100137.84
2023-11-28T18:35:04.568Z,100137.00
2023-11-28T18:37:31.171Z,100138.22
2023-11-28T18:39:57.707Z,100138.38
2023-11-28T18:42:24.215Z,100137.06
2023-11-28T18:44:52.375Z,100136.41
2023-11-28T18:47:19.200Z,100135.06
2023-11-28T18:49:47.001Z,100142.91
2023-11-28T18:52:13.529Z,100142.63
2023-11-28T18:54:40.029Z,100141.69
2023-11-28T18:57:06.600Z,100140.34
2023-11-28T18:59:35.498Z,100144.81
2023-11-28T19:02:02.366Z,100147.59
2023-11-28T19:04:29.133Z,100154.06
2023-11-28T19:06:56.314Z,100157.69
2023-11-28T19:09:23.873Z,100157.56
2023-11-28T19:11:52.114Z,100163.03
2023-11-28T19:14:18.780Z,100172.75
2023-11-28T19:16:45.377Z,100176.34
2023-11-28T19:19:11.932Z,100177.22
2023-11-28T19:21:44.993Z,100180.63
2023-11-28T19:24:11.933Z,100182.53
2023-11-28T19:26:38.419Z,100181.53
2023-11-28T19:29:04.999Z,100184.94
2023-11-28T19:31:31.734Z,100177.50
2023-11-28T19:33:58.301Z,100180.72
2023-11-28T19:36:26.799Z,100193.13
2023-11-28T19:38:53.297Z,100188.41
2023-11-28T19:41:19.930Z,100187.03
2023-11-28T19:43:46.749Z,100179.56
2023-11-28T19:46:14.072Z,100175.50
2023-11-28T19:48:43.337Z,100185.69
2023-11-28T19:51:10.298Z,100187.06
2023-11-28T19:53:36.939Z,100178.25
2023-11-28T19:56:06.134Z,100175.03
2023-11-28T19:58:32.763Z,100185.38
2023-11-28T20:00:59.398Z,100184.84
2023-11-28T20:03:25.888Z,100184.19
2023-11-28T20:05:53.531Z,100191.66
2023-11-28T20:08:20.158Z,100183.69
2023-11-28T20:10:46.736Z,100184.03
2023-11-28T20:13:14.756Z,100189.44
2023-11-28T20:15:43.994Z,100181.66
2023-11-28T20:18:10.525Z,100181.97
2023-11-28T20:20:37.183Z,100177.59
2023-11-28T20:23:03.830Z,100177.75
2023-11-28T20:25:30.307Z,100176.91
2023-11-28T20:27:56.830Z,100169.97
2023-11-28T20:30:23.354Z,100172.84
2023-11-28T20:32:50.138Z,100183.84
2023-11-28T20:35:16.865Z,100191.13
2023-11-28T20:37:43.485Z,100185.03
2023-11-28T20:40:11.909Z,100185.03
2023-11-28T20:42:39.313Z,100193.50
2023-11-28T20:45:06.408Z,100189.25
2023-11-28T20:47:32.999Z,100195.88
2023-11-28T20:50:00.022Z,100197.88
2023-11-28T20:52:26.722Z,100197.03
2023-11-28T20:54:56.191Z,100201.59
2023-11-28T20:57:22.950Z,100182.63
2023-11-28T20:59:52.165Z,100195.19
2023-11-28T21:02:24.602Z,100189.09
2023-11-28T21:04:51.513Z,100182.97
2023-11-28T21:07:20.053Z,100190.25
2023-11-28T21:09:46.585Z,100191.28
2023-11-28T21:12:13.128Z,100200.56
2023-11-28T21:14:39.742Z,100186.38
2023-11-28T21:17:06.553Z,100191.94
2023-11-28T21:19:33.081Z,100186.00
2023-11-28T21:21:59.588Z,100186.19
2023-11-28T21:24:26.153Z,100184.66
2023-11-28T21:26:53.045Z,100185.69
2023-11-28T21:29:21.373Z,100174.16
2023-11-28T21:31:49.938Z,100181.63
2023-11-28T21:34:17.299Z,100185.47
2023-11-28T21:36:43.832Z,100187.69
2023-11-28T21:39:11.917Z,100192.56
2023-11-28T21:41:39.319Z,100194.78
2023-11-28T21:44:06.177Z,100202.56
2023-11-28T21:46:32.900Z,100201.19
2023-11-28T21:49:01.503Z,100197.78
2023-11-28T21:51:28.269Z,100192.72
2023-11-28T21:53:54.715Z,100195.59
2023-11-28T21:56:21.572Z,100198.47
2023-11-28T21:58:48.180Z,100197.59
2023-11-28T22:01:14.734Z,100184.41
2023-11-28T22:03:41.379Z,100178.47
2023-11-28T22:06:08.007Z,100181.53
2023-11-28T22:08:36.825Z,100175.59
2023-11-28T22:11:05.353Z,100179.44
2023-11-28T22:13:31.878Z,100178.78
2023-11-28T22:15:58.388Z,100176.22
2023-11-28T22:18:24.912Z,100168.28
2023-11-28T22:20:51.634Z,100173.00
2023-11-28T22:23:18.188Z,100156.94
2023-11-28T22:25:44.696Z,100159.81
2023-11-28T22:28:11.152Z,100157.44
2023-11-28T22:30:37.666Z,100155.72
2023-11-28T22:33:04.439Z,100156.72
2023-11-28T22:35:31.115Z,100155.06
2023-11-28T22:37:59.657Z,100148.94
2023-11-28T22:40:26.319Z,100146.59
2023-11-28T22:42:52.916Z,100144.03
2023-11-28T22:45:19.853Z,100131.53
2023-11-28T22:47:46.524Z,100139.81
2023-11-28T22:50:13.067Z,100131.03
2023-11-28T22:52:39.615Z,100136.44
2023-11-28T22:55:07.614Z,100142.16
2023-11-28T22:57:34.205Z,100138.75
2023-11-28T23:00:01.514Z,100136.06
2023-11-28T23:02:29.367Z,100143.66
2023-11-28T23:04:55.973Z,100135.53
2023-11-28T23:07:23.649Z,100131.97
2023-11-28T23:09:50.480Z,100135.69
2023-11-28T23:12:18.837Z,100129.59
2023-11-28T23:14:46.265Z,100137.72
2023-11-28T23:17:13.248Z,100127.91
2023-11-28T23:19:39.975Z,100129.75
2023-11-28T23:22:06.585Z,100125.53
2023-11-28T23:24:33.174Z,100113.88
2023-11-28T23:27:00.415Z,100110.16
2023-11-28T23:29:27.117Z,100114.88
2023-11-28T23:31:54.397Z,100109.47
2023-11-28T23:34:21.239Z,100112.00
2023-11-28T23:36:48.876Z,100111.34
2023-11-28T23:39:20.231Z,100108.94
2023-11-28T23:41:46.894Z,100102.72
2023-11-28T23:44:13.544Z,100092.06
2023-11-28T23:46:40.043Z,100089.50
2023-11-28T23:49:06.665Z,100082.41
2023-11-28T23:51:34.015Z,100081.56
2023-11-28T23:54:00.791Z,100074.47
2023-11-28T23:56:27.457Z,100080.19
2023-11-28T23:58:54.139Z,100069.72
